Time;durP1;ratioP1;P1;durP2;ratioP2;P2;SDS_P1;SDS_P2;PMS_P1;PMS_P2;Temp;Humidity;BMP_temperature;BMP_pressure;BME280_temperature;BME280_humidity;BME280_pressure;Samples;Min_cycle;Max_cycle;Signal;HPM_P1;HPM_P2
2021/09/23 00:08:39;;;;;;;8.02;4.03;;;12.00;99.90;;;;;;6650342;88;20211;-76
2021/09/23 00:18:40;;;;;;;7.60;4.07;;;12.10;99.90;;;;;;6650401;88;20222;-76
2021/09/23 00:28:43;;;;;;;11.12;3.87;;;12.20;99.90;;;;;;6666629;88;20191;-76
2021/09/23 00:38:43;;;;;;;6.75;4.12;;;12.00;99.90;;;;;;6650435;88;20664;-77
2021/09/23 00:48:49;;;;;;;7.43;4.07;;;11.80;99.90;;;;;;6649530;88;20250;-76
2021/09/23 00:58:50;;;;;;;7.07;3.70;;;11.80;99.90;;;;;;6649852;88;20337;-76
2021/09/23 01:08:55;;;;;;;5.93;3.90;;;11.70;99.90;;;;;;6651736;88;20196;-77
2021/09/23 01:18:55;;;;;;;7.28;3.70;;;11.40;99.90;;;;;;6707854;88;20394;-77
2021/09/23 01:28:56;;;;;;;8.23;3.92;;;11.60;99.90;;;;;;6692494;88;20824;-79
2021/09/23 01:38:57;;;;;;;8.32;4.35;;;11.60;99.90;;;;;;6658976;88;20562;-77
2021/09/23 01:48:57;;;;;;;6.37;4.00;;;11.60;99.90;;;;;;6632532;89;20193;-76
2021/09/23 01:58:58;;;;;;;6.62;3.85;;;11.60;99.90;;;;;;6632650;89;20270;-77
2021/09/23 02:08:58;;;;;;;6.95;4.18;;;11.50;99.90;;;;;;6639842;89;20257;-77
2021/09/23 02:18:59;;;;;;;6.75;4.07;;;11.60;99.90;;;;;;6685586;88;20360;-77
2021/09/23 02:29:00;;;;;;;5.93;3.50;;;11.30;99.90;;;;;;6670457;88;20279;-77
2021/09/23 02:39:00;;;;;;;9.15;4.22;;;11.30;99.90;;;;;;6658140;88;20197;-76
2021/09/23 02:49:01;;;;;;;8.10;4.32;;;11.60;99.90;;;;;;6662394;88;20217;-77
2021/09/23 02:59:01;;;;;;;6.50;4.20;;;11.70;99.90;;;;;;6667483;88;20310;-77
2021/09/23 03:09:02;;;;;;;8.00;4.40;;;11.60;99.90;;;;;;6670959;88;20382;-77
2021/09/23 03:19:03;;;;;;;7.55;4.35;;;11.40;99.90;;;;;;6659887;88;20204;-77
2021/09/23 03:29:10;;;;;;;6.13;3.53;;;11.30;99.90;;;;;;6665290;88;20685;-77
2021/09/23 03:39:13;;;;;;;7.10;4.47;;;11.10;99.90;;;;;;6649675;88;20512;-78
2021/09/23 03:49:13;;;;;;;7.30;4.18;;;10.80;99.90;;;;;;6632628;89;20512;-77
2021/09/23 03:59:14;;;;;;;5.78;3.95;;;10.70;99.90;;;;;;6632781;89;20196;-78
2021/09/23 04:09:15;;;;;;;6.68;3.70;;;10.70;99.90;;;;;;6632541;89;20407;-78
2021/09/23 04:19:16;;;;;;;9.60;3.97;;;10.70;99.90;;;;;;6631925;89;20278;-77
2021/09/23 04:29:16;;;;;;;6.15;3.40;;;10.70;99.90;;;;;;6632091;89;20780;-77
2021/09/23 04:39:18;;;;;;;6.62;3.72;;;10.60;99.90;;;;;;6632676;89;20217;-76
2021/09/23 04:49:19;;;;;;;6.57;4.15;;;10.50;99.90;;;;;;6632352;89;20661;-76
2021/09/23 04:59:19;;;;;;;10.63;4.65;;;10.50;99.90;;;;;;6634870;89;20344;-77
2021/09/23 05:09:20;;;;;;;9.32;4.50;;;10.30;99.90;;;;;;6634201;89;20200;-76
2021/09/23 05:29:24;;;;;;;7.70;4.60;;;10.00;99.90;;;;;;6728374;88;20220;-79
2021/09/23 05:39:24;;;;;;;8.45;4.60;;;10.10;99.90;;;;;;6728319;88;20314;-80
2021/09/23 05:49:25;;;;;;;8.93;4.45;;;10.20;99.90;;;;;;6721978;88;20192;-81
2021/09/23 05:59:26;;;;;;;7.47;4.72;;;10.20;99.90;;;;;;6726730;88;20201;-81
2021/09/23 06:09:27;;;;;;;11.75;5.35;;;10.20;99.90;;;;;;6729712;88;20673;-79
2021/09/23 06:19:28;;;;;;;8.98;5.53;;;10.30;99.90;;;;;;6731931;88;20196;-81
2021/09/23 06:29:29;;;;;;;8.10;4.68;;;10.60;99.90;;;;;;6735927;88;20213;-81
2021/09/23 06:39:31;;;;;;;8.45;5.37;;;10.70;99.90;;;;;;6736857;88;20189;-82
2021/09/23 06:49:31;;;;;;;9.27;4.90;;;10.90;99.90;;;;;;6740635;88;20181;-80
2021/09/23 06:59:32;;;;;;;11.75;6.60;;;11.20;99.90;;;;;;6740324;88;20202;-80
2021/09/23 07:09:32;;;;;;;12.98;6.32;;;11.80;99.90;;;;;;6740457;88;20227;-80
2021/09/23 07:19:33;;;;;;;10.95;5.65;;;12.40;99.90;;;;;;6742014;88;20653;-81
2021/09/23 07:29:34;;;;;;;10.15;5.90;;;13.20;99.90;;;;;;6736459;88;20238;-81
2021/09/23 07:39:35;;;;;;;9.80;5.80;;;13.90;99.90;;;;;;6742608;88;20240;-81
2021/09/23 07:49:36;;;;;;;9.50;5.57;;;14.40;99.90;;;;;;6742303;88;20185;-80
2021/09/23 07:59:36;;;;;;;9.98;6.37;;;14.90;99.90;;;;;;6742698;88;20206;-81
2021/09/23 08:09:37;;;;;;;10.55;6.22;;;15.30;99.90;;;;;;6741732;88;20193;-79
2021/09/23 08:19:38;;;;;;;13.68;7.10;;;16.10;99.90;;;;;;6736021;88;20195;-81
2021/09/23 08:29:39;;;;;;;8.48;4.70;;;16.80;99.90;;;;;;6732892;88;20198;-82
2021/09/23 08:39:40;;;;;;;6.47;3.87;;;17.80;99.90;;;;;;6732512;88;20252;-81
2021/09/23 08:49:40;;;;;;;5.20;3.20;;;18.70;99.90;;;;;;6733274;88;20288;-81
2021/09/23 08:59:41;;;;;;;5.03;2.37;;;19.20;99.90;;;;;;6732275;88;20221;-81
2021/09/23 09:09:45;;;;;;;4.47;2.40;;;19.00;99.90;;;;;;6733103;88;20218;-81
2021/09/23 09:19:48;;;;;;;5.50;3.00;;;19.00;99.90;;;;;;6730952;88;20194;-80
2021/09/23 09:29:57;;;;;;;6.57;3.10;;;19.70;99.90;;;;;;6720005;88;20190;-81
2021/09/23 09:39:59;;;;;;;8.32;3.35;;;20.50;99.90;;;;;;6728563;88;20211;-81
2021/09/23 09:50:14;;;;;;;5.25;2.80;;;21.70;99.90;;;;;;6728027;88;20214;-81
2021/09/23 10:00:16;;;;;;;4.68;2.53;;;22.90;99.90;;;;;;6729279;88;20202;-80
2021/09/23 10:10:19;;;;;;;5.10;2.42;;;24.50;99.00;;;;;;6725523;88;20210;-82
2021/09/23 10:20:23;;;;;;;3.95;2.00;;;25.70;98.30;;;;;;6727977;88;20779;-80
2021/09/23 10:30:26;;;;;;;;;;;26.00;93.60;;;;;;6726095;88;20674;-80
2021/09/23 10:40:28;;;;;;;3.45;1.45;;;26.60;94.30;;;;;;6707108;88;20098;-82
2021/09/23 10:50:31;;;;;;;3.20;1.40;;;27.00;90.20;;;;;;6709060;88;20200;-82
2021/09/23 11:00:34;;;;;;;3.78;1.40;;;27.00;85.10;;;;;;6712926;88;20575;-80
2021/09/23 11:10:41;;;;;;;3.20;1.40;;;26.40;86.00;;;;;;6719682;88;20728;-81
2021/09/23 11:20:46;;;;;;;1.98;1.20;;;26.80;85.50;;;;;;6712331;88;21032;-81
2021/09/23 11:30:50;;;;;;;2.90;1.50;;;26.80;83.10;;;;;;6726966;88;20284;-81
2021/09/23 11:40:52;;;;;;;3.15;1.50;;;27.60;83.80;;;;;;6719883;88;20197;-81
2021/09/23 11:51:28;;;;;;;3.37;1.77;;;27.20;84.80;;;;;;6721023;88;20193;-82
2021/09/23 12:01:29;;;;;;;3.47;1.70;;;28.30;82.60;;;;;;6722700;88;20217;-81
2021/09/23 12:11:29;;;;;;;3.40;1.93;;;29.10;80.50;;;;;;6721892;88;20279;-79
2021/09/23 12:21:33;;;;;;;2.60;1.60;;;28.70;80.90;;;;;;6716817;88;20286;-81
2021/09/23 12:31:37;;;;;;;2.37;1.40;;;29.20;79.90;;;;;;6716674;88;20216;-80
2021/09/23 12:41:39;;;;;;;3.35;1.50;;;29.20;78.00;;;;;;6738152;88;20205;-81
2021/09/23 12:51:39;;;;;;;2.80;1.40;;;29.50;76.40;;;;;;6739336;88;20800;-81
2021/09/23 13:01:40;;;;;;;3.25;1.20;;;29.00;72.80;;;;;;6739075;88;20357;-81
2021/09/23 13:11:40;;;;;;;2.97;1.30;;;29.80;67.00;;;;;;6735561;88;20218;-81
2021/09/23 13:21:41;;;;;;;1.77;1.20;;;28.50;64.30;;;;;;6735452;88;20823;-81
2021/09/23 13:31:41;;;;;;;3.53;1.12;;;28.10;64.20;;;;;;6738415;88;20224;-80
2021/09/23 13:41:42;;;;;;;2.05;1.40;;;27.60;65.90;;;;;;6733490;88;20221;-81
2021/09/23 13:51:43;;;;;;;4.28;1.58;;;27.20;66.80;;;;;;6735735;88;20216;-80
2021/09/23 14:01:44;;;;;;;2.50;1.50;;;26.80;68.60;;;;;;6718548;88;20204;-78
2021/09/23 14:11:44;;;;;;;2.55;1.55;;;26.50;68.90;;;;;;6717994;88;20181;-79
2021/09/23 14:21:45;;;;;;;4.25;1.70;;;26.20;70.20;;;;;;6719756;88;20279;-80
2021/09/23 14:31:45;;;;;;;5.90;1.90;;;25.80;72.00;;;;;;6719523;88;20300;-79
2021/09/23 14:41:46;;;;;;;3.95;2.00;;;25.70;73.70;;;;;;6715648;88;20240;-79
2021/09/23 14:51:48;;;;;;;6.15;2.10;;;25.20;74.40;;;;;;6716244;88;20213;-79
2021/09/23 15:01:52;;;;;;;4.00;2.12;;;25.10;74.50;;;;;;6720135;88;20197;-81
2021/09/23 15:11:53;;;;;;;;;;;25.10;73.90;;;;;;6716486;88;20182;-81
2021/09/23 15:21:54;;;;;;;7.75;2.25;;;24.70;75.00;;;;;;6713352;88;20816;-80
2021/09/23 15:31:54;;;;;;;5.47;2.30;;;23.90;77.30;;;;;;6725860;88;20220;-80
2021/09/23 15:41:55;;;;;;;10.10;2.67;;;23.50;78.40;;;;;;6730923;88;20224;-81
2021/09/23 15:51:55;;;;;;;8.77;2.67;;;23.10;79.60;;;;;;6727201;88;20704;-80
2021/09/23 16:01:56;;;;;;;4.25;2.50;;;22.60;81.90;;;;;;6725214;88;20228;-80
2021/09/23 16:11:57;;;;;;;8.23;2.50;;;22.30;84.50;;;;;;6731754;88;20204;-79
2021/09/23 16:21:57;;;;;;;5.40;2.30;;;21.20;92.80;;;;;;6739002;88;20695;-78
2021/09/23 16:31:59;;;;;;;6.50;2.90;;;20.60;95.40;;;;;;6729461;88;20206;-77
2021/09/23 16:42:00;;;;;;;7.60;3.20;;;20.60;96.00;;;;;;6724618;88;20185;-79
2021/09/23 16:52:00;;;;;;;7.25;2.78;;;20.50;97.70;;;;;;6727818;88;20684;-76
2021/09/23 17:02:03;;;;;;;6.05;2.90;;;20.40;99.00;;;;;;6736503;88;20267;-82
2021/09/23 17:12:04;;;;;;;6.55;3.25;;;20.20;99.90;;;;;;6734911;88;20169;-77
2021/09/23 17:32:08;;;;;;;7.85;3.08;;;20.10;99.90;;;;;;6709262;88;20237;-77
2021/09/23 17:42:09;;;;;;;7.43;3.12;;;19.90;99.90;;;;;;6702739;88;20226;-80
2021/09/23 17:52:09;;;;;;;8.43;3.37;;;19.70;99.90;;;;;;6705626;88;20192;-79
2021/09/23 18:02:10;;;;;;;7.85;3.40;;;19.60;99.90;;;;;;6698803;88;20511;-77
2021/09/23 18:12:11;;;;;;;7.30;3.30;;;19.70;99.90;;;;;;6696665;88;20733;-77
2021/09/23 18:22:11;;;;;;;8.40;3.37;;;19.60;99.90;;;;;;6710235;88;20887;-76
2021/09/23 18:32:12;;;;;;;5.90;3.08;;;19.50;99.90;;;;;;6716039;88;20268;-78
2021/09/23 18:42:12;;;;;;;5.97;3.30;;;19.40;99.90;;;;;;6720260;88;20201;-78
2021/09/23 18:52:13;;;;;;;7.07;3.22;;;19.40;99.90;;;;;;6721546;88;20702;-78
2021/09/23 19:02:13;;;;;;;4.97;3.05;;;19.20;99.90;;;;;;6722515;88;20676;-78
2021/09/23 19:12:14;;;;;;;6.43;3.50;;;18.90;99.90;;;;;;6724944;88;20318;-78
2021/09/23 19:22:14;;;;;;;8.27;4.00;;;18.50;99.90;;;;;;6725994;88;20973;-79
2021/09/23 19:32:17;;;;;;;8.40;4.00;;;18.30;99.90;;;;;;6727040;88;20212;-80
2021/09/23 19:42:18;;;;;;;7.53;4.10;;;18.20;99.90;;;;;;6690888;88;20226;-77
2021/09/23 19:52:19;;;;;;;8.13;3.83;;;18.00;99.90;;;;;;6689903;88;20361;-77
2021/09/23 20:02:19;;;;;;;6.18;4.10;;;18.00;99.90;;;;;;6688496;88;20187;-77
2021/09/23 20:12:22;;;;;;;7.53;3.70;;;17.90;99.90;;;;;;6688658;88;20216;-77
2021/09/23 20:22:22;;;;;;;6.32;3.00;;;17.90;99.90;;;;;;6692824;88;20182;-79
2021/09/23 20:32:23;;;;;;;5.32;3.20;;;17.90;99.90;;;;;;6691458;88;20214;-77
2021/09/23 20:42:23;;;;;;;7.40;3.37;;;17.90;99.90;;;;;;6691658;88;20284;-78
2021/09/23 20:52:24;;;;;;;5.18;3.30;;;17.90;99.90;;;;;;6692744;88;20194;-78
2021/09/23 21:02:26;;;;;;;9.43;3.75;;;17.70;99.90;;;;;;6685808;88;20208;-79
2021/09/23 21:12:26;;;;;;;6.85;3.05;;;17.60;99.90;;;;;;6685903;88;20341;-78
2021/09/23 21:22:27;;;;;;;7.68;3.20;;;17.60;99.90;;;;;;6681778;88;20244;-78
2021/09/23 21:32:27;;;;;;;5.60;3.15;;;17.60;99.90;;;;;;6688352;88;20246;-77
2021/09/23 21:42:28;;;;;;;6.25;2.60;;;17.70;99.90;;;;;;6701911;88;20783;-78
2021/09/23 21:52:28;;;;;;;6.18;2.85;;;17.60;99.90;;;;;;6710802;88;20707;-78
2021/09/23 22:02:29;;;;;;;5.53;3.00;;;17.50;99.90;;;;;;6710655;88;20206;-78
2021/09/23 22:12:30;;;;;;;6.63;3.20;;;17.30;99.90;;;;;;6708666;88;20212;-78
2021/09/23 22:22:31;;;;;;;7.70;3.40;;;17.10;99.90;;;;;;6708004;88;20570;-78
2021/09/23 22:32:32;;;;;;;7.90;3.00;;;17.00;99.90;;;;;;6706168;88;20187;-78
2021/09/23 22:42:32;;;;;;;7.05;3.30;;;16.90;99.90;;;;;;6702744;88;20178;-78
2021/09/23 22:52:33;;;;;;;9.23;3.80;;;16.70;99.90;;;;;;6706380;88;20317;-78
2021/09/23 23:02:34;;;;;;;7.65;3.53;;;16.70;99.90;;;;;;6708914;88;20715;-78
2021/09/23 23:12:35;;;;;;;7.97;3.45;;;16.70;99.90;;;;;;6707366;88;20955;-78
